Time;durP1;ratioP1;P1;durP2;ratioP2;P2;SDS_P1;SDS_P2;PMS_P1;PMS_P2;Temp;Humidity;BMP_temperature;BMP_pressure;BME280_temperature;BME280_humidity;BME280_pressure;Samples;Min_cycle;Max_cycle;Signal;HPM_P1;HPM_P2
2022/04/15 00:02:20;;;;;;;5.25;3.50;;;6.80;99.90;;;;;;5016494;28;20441;-89
2022/04/15 00:04:48;;;;;;;5.20;3.17;;;6.70;99.90;;;;;;5045062;28;20406;-89
2022/04/15 00:07:17;;;;;;;5.80;4.05;;;6.70;99.90;;;;;;4999549;28;20389;-89
2022/04/15 00:09:47;;;;;;;5.72;3.85;;;6.70;99.90;;;;;;5013402;28;20413;-89
2022/04/15 00:12:27;;;;;;;5.13;2.90;;;6.80;99.90;;;;;;5019827;28;20887;-87
2022/04/15 00:14:55;;;;;;;6.10;3.80;;;6.70;99.90;;;;;;5028386;28;20444;-89
2022/04/15 00:17:23;;;;;;;2.47;1.88;;;6.70;99.90;;;;;;4999827;28;20393;-88
2022/04/15 00:19:51;;;;;;;5.40;3.28;;;6.70;99.90;;;;;;5002856;28;20913;-89
2022/04/15 00:22:18;;;;;;;6.32;3.83;;;6.70;99.90;;;;;;5014229;28;20398;-88
2022/04/15 00:24:46;;;;;;;5.03;2.75;;;6.70;99.90;;;;;;4996787;28;20968;-89
2022/04/15 00:27:15;;;;;;;2.80;1.80;;;6.80;99.90;;;;;;5006005;28;20491;-89
2022/04/15 00:29:42;;;;;;;4.10;2.80;;;6.70;99.90;;;;;;5006321;28;20943;-89
2022/04/15 00:32:10;;;;;;;6.03;3.30;;;6.70;99.90;;;;;;5016132;28;20501;-88
2022/04/15 00:34:38;;;;;;;5.90;3.20;;;6.70;99.90;;;;;;5011166;28;20403;-89
2022/04/15 00:37:06;;;;;;;5.97;3.58;;;6.70;99.90;;;;;;5002792;28;20423;-87
2022/04/15 00:39:35;;;;;;;7.43;4.00;;;6.60;99.90;;;;;;5005065;28;20405;-89
2022/04/15 00:42:03;;;;;;;6.30;3.95;;;6.80;99.90;;;;;;5004560;28;20798;-89
2022/04/15 00:44:30;;;;;;;5.32;3.70;;;6.70;99.90;;;;;;5014266;28;20395;-89
2022/04/15 00:46:58;;;;;;;5.55;3.25;;;6.70;99.90;;;;;;5016243;28;20400;-89
2022/04/15 00:49:25;;;;;;;4.63;3.10;;;6.70;99.90;;;;;;5008243;28;20396;-88
2022/04/15 00:51:55;;;;;;;3.55;2.50;;;6.70;99.90;;;;;;5034641;28;20405;-88
2022/04/15 00:54:29;;;;;;;4.07;2.72;;;6.60;99.90;;;;;;5021012;28;20408;-88
2022/04/15 00:57:00;;;;;;;3.50;2.38;;;6.70;99.90;;;;;;5031835;28;20402;-88
2022/04/15 00:59:31;;;;;;;3.70;2.33;;;6.60;99.90;;;;;;5019685;28;20402;-89
2022/04/15 01:02:01;;;;;;;2.60;1.88;;;6.60;99.90;;;;;;5027589;28;20397;-88
2022/04/15 01:04:31;;;;;;;4.40;2.60;;;6.60;99.90;;;;;;5017408;28;20398;-90
2022/04/15 01:07:04;;;;;;;5.18;2.70;;;6.60;99.90;;;;;;4991245;28;20878;-89
2022/04/15 01:09:33;;;;;;;4.60;2.60;;;6.60;99.90;;;;;;4992809;28;20417;-90
2022/04/15 01:12:05;;;;;;;4.60;3.03;;;6.60;99.90;;;;;;5004117;28;20463;-88
2022/04/15 01:14:36;;;;;;;6.75;4.03;;;6.60;99.90;;;;;;4991239;28;20966;-87
2022/04/15 01:17:04;;;;;;;5.55;4.07;;;6.60;99.90;;;;;;5008261;28;20425;-89
2022/04/15 01:19:34;;;;;;;6.78;3.67;;;6.60;99.90;;;;;;5014522;28;20394;-89
2022/04/15 01:22:08;;;;;;;4.53;3.00;;;6.60;99.90;;;;;;5017793;28;20755;-90
2022/04/15 01:24:38;;;;;;;5.50;2.85;;;6.60;99.90;;;;;;5029956;28;20411;-91
2022/04/15 01:27:08;;;;;;;4.25;2.65;;;6.60;99.90;;;;;;5024589;28;20409;-90
2022/04/15 01:29:37;;;;;;;4.97;3.00;;;6.50;99.90;;;;;;5002734;28;20858;-88
2022/04/15 01:32:07;;;;;;;4.32;2.40;;;6.50;99.90;;;;;;5037991;28;20400;-88
2022/04/15 01:34:35;;;;;;;3.60;2.05;;;6.50;99.90;;;;;;5016562;28;20396;-88
2022/04/15 01:37:04;;;;;;;3.85;2.30;;;6.50;99.90;;;;;;5007282;28;20408;-88
2022/04/15 01:39:34;;;;;;;3.30;1.98;;;6.50;99.90;;;;;;5008401;28;20459;-88
2022/04/15 01:42:03;;;;;;;2.90;2.00;;;6.50;99.90;;;;;;5017308;28;20903;-89
2022/04/15 01:44:31;;;;;;;2.60;1.88;;;6.50;99.90;;;;;;5015184;28;20490;-88
2022/04/15 01:46:59;;;;;;;3.28;2.30;;;6.50;99.90;;;;;;5020060;28;20396;-90
2022/04/15 01:49:26;;;;;;;3.50;2.30;;;6.50;99.90;;;;;;5037033;28;20439;-89
2022/04/15 01:51:54;;;;;;;3.47;2.17;;;6.40;99.90;;;;;;5017104;28;20398;-88
2022/04/15 01:54:23;;;;;;;3.42;2.50;;;6.50;99.90;;;;;;5015477;28;20503;-88
2022/04/15 01:56:51;;;;;;;4.72;2.70;;;6.50;99.90;;;;;;5016390;28;20403;-88
2022/04/15 01:59:18;;;;;;;4.57;3.03;;;6.50;99.90;;;;;;5007345;28;20403;-89
2022/04/15 02:01:46;;;;;;;2.95;2.10;;;6.50;99.90;;;;;;5008153;28;20907;-88
2022/04/15 02:04:14;;;;;;;2.30;1.40;;;6.50;99.90;;;;;;5017776;28;20454;-89
2022/04/15 02:06:42;;;;;;;3.00;1.95;;;6.50;99.90;;;;;;5004694;28;20402;-87
2022/04/15 02:09:10;;;;;;;4.63;3.05;;;6.40;99.90;;;;;;4991959;28;20499;-89
2022/04/15 02:11:37;;;;;;;5.72;3.30;;;6.40;99.90;;;;;;5013593;28;20488;-87
2022/04/15 02:14:05;;;;;;;5.47;3.30;;;6.40;99.90;;;;;;5038964;28;20484;-88
2022/04/15 02:16:33;;;;;;;3.70;2.47;;;6.30;99.90;;;;;;5014637;28;20413;-89
2022/04/15 02:19:01;;;;;;;4.18;2.58;;;6.30;99.90;;;;;;5011062;28;20897;-87
2022/04/15 02:21:29;;;;;;;4.47;3.38;;;6.30;99.90;;;;;;5011616;28;20425;-89
2022/04/15 02:23:57;;;;;;;6.43;3.70;;;6.30;99.90;;;;;;5052044;28;20634;-88
2022/04/15 02:26:25;;;;;;;5.30;4.00;;;6.30;99.90;;;;;;5018071;28;20405;-87
2022/04/15 02:28:53;;;;;;;3.47;2.15;;;6.30;99.90;;;;;;5014015;28;20440;-88
2022/04/15 02:31:21;;;;;;;3.67;2.47;;;6.30;99.90;;;;;;5005337;28;20718;-89
2022/04/15 02:33:49;;;;;;;4.47;3.08;;;6.30;99.90;;;;;;5018173;28;20407;-89
2022/04/15 02:36:16;;;;;;;3.20;2.38;;;6.30;99.90;;;;;;4999762;28;20415;-88
2022/04/15 02:38:44;;;;;;;3.72;2.08;;;6.40;99.90;;;;;;5019050;28;20817;-89
2022/04/15 02:41:13;;;;;;;3.30;2.20;;;6.40;99.90;;;;;;5006060;28;20389;-88
2022/04/15 02:43:41;;;;;;;3.40;2.20;;;6.40;99.90;;;;;;5002977;28;21083;-89
2022/04/15 02:46:12;;;;;;;4.00;2.72;;;6.40;99.90;;;;;;5017267;28;20407;-88
2022/04/15 02:48:41;;;;;;;2.63;2.20;;;6.40;99.90;;;;;;5016602;28;20408;-89
2022/04/15 02:51:08;;;;;;;2.13;1.65;;;6.30;99.90;;;;;;5029520;28;20399;-90
2022/04/15 02:53:36;;;;;;;2.67;2.00;;;6.30;99.90;;;;;;5016222;28;20390;-89
2022/04/15 02:56:04;;;;;;;3.08;2.50;;;6.30;99.90;;;;;;4994257;28;20509;-89
2022/04/15 02:58:32;;;;;;;3.63;2.65;;;6.40;99.90;;;;;;5049597;28;20406;-89
2022/04/15 03:01:01;;;;;;;3.67;2.92;;;6.40;99.90;;;;;;5012615;28;20414;-88
2022/04/15 03:03:28;;;;;;;2.63;2.03;;;6.40;99.90;;;;;;5021724;28;20402;-89
2022/04/15 03:05:56;;;;;;;2.35;1.70;;;6.40;99.90;;;;;;5033399;28;20404;-88
2022/04/15 03:08:24;;;;;;;2.87;2.00;;;6.30;99.90;;;;;;5015945;28;20417;-89
2022/04/15 03:10:51;;;;;;;3.08;1.92;;;6.20;99.90;;;;;;5015055;28;20481;-88
2022/04/15 03:13:19;;;;;;;3.60;2.17;;;6.20;99.90;;;;;;5012091;28;20445;-89
2022/04/15 03:15:47;;;;;;;2.80;1.80;;;6.20;99.90;;;;;;5001759;28;20409;-88
2022/04/15 03:18:15;;;;;;;2.30;1.80;;;6.20;99.90;;;;;;5010576;28;20402;-89
2022/04/15 03:20:45;;;;;;;2.65;2.25;;;6.30;99.90;;;;;;5033747;28;20409;-86
2022/04/15 03:23:13;;;;;;;3.65;2.60;;;6.30;99.90;;;;;;5010939;28;20449;-89
2022/04/15 03:25:41;;;;;;;4.82;2.67;;;6.30;99.90;;;;;;5011738;28;20394;-89
2022/04/15 03:28:08;;;;;;;3.27;2.30;;;6.20;99.90;;;;;;5011268;28;20451;-89
2022/04/15 03:30:36;;;;;;;3.38;2.17;;;6.20;99.90;;;;;;5005227;28;20387;-88
2022/04/15 03:33:04;;;;;;;3.72;2.63;;;6.20;99.90;;;;;;5051714;28;20414;-89
2022/04/15 03:35:32;;;;;;;4.15;3.17;;;6.20;99.90;;;;;;5012647;28;20402;-89
2022/04/15 03:38:00;;;;;;;5.10;3.40;;;6.20;99.90;;;;;;5035185;28;20439;-89
2022/04/15 03:40:28;;;;;;;4.93;3.70;;;6.20;99.90;;;;;;5040365;28;20412;-89
2022/04/15 03:42:56;;;;;;;5.72;4.10;;;6.20;99.90;;;;;;5011044;28;21032;-88
2022/04/15 03:45:24;;;;;;;5.28;4.00;;;6.20;99.90;;;;;;5035593;28;20397;-87
2022/04/15 03:47:56;;;;;;;6.00;4.43;;;6.20;99.90;;;;;;5034588;28;20792;-89
2022/04/15 03:50:24;;;;;;;5.97;4.33;;;6.20;99.90;;;;;;5037828;28;20496;-89
2022/04/15 03:52:53;;;;;;;8.63;4.77;;;6.20;99.90;;;;;;5016512;28;20771;-88
2022/04/15 03:55:24;;;;;;;6.75;5.00;;;6.20;99.90;;;;;;5004591;28;20511;-89
2022/04/15 03:57:52;;;;;;;7.68;5.53;;;6.20;99.90;;;;;;5013632;28;20417;-88
2022/04/15 04:00:22;;;;;;;8.52;4.57;;;6.20;99.90;;;;;;5017629;28;20403;-88
2022/04/15 04:02:52;;;;;;;7.72;4.75;;;6.20;99.90;;;;;;5018362;28;20438;-89
2022/04/15 04:05:21;;;;;;;4.50;3.17;;;6.20;99.90;;;;;;5016186;28;20398;-89
2022/04/15 04:07:50;;;;;;;4.80;3.75;;;6.20;99.90;;;;;;5013759;28;20425;-86
2022/04/15 04:10:18;;;;;;;5.10;3.67;;;6.20;99.90;;;;;;5011779;28;20760;-88
2022/04/15 04:12:48;;;;;;;6.00;4.63;;;6.20;99.90;;;;;;5051441;28;20405;-89
2022/04/15 04:15:16;;;;;;;5.55;3.97;;;6.20;99.90;;;;;;5016029;28;20409;-89
2022/04/15 04:17:44;;;;;;;4.70;3.20;;;6.20;99.90;;;;;;5022248;28;20397;-87
2022/04/15 04:20:13;;;;;;;5.45;3.85;;;6.20;99.90;;;;;;5018551;28;20403;-87
2022/04/15 04:22:40;;;;;;;4.95;3.60;;;6.20;99.90;;;;;;5016134;28;20984;-88
2022/04/15 04:25:09;;;;;;;5.03;3.65;;;6.20;99.90;;;;;;5037777;28;20486;-87
2022/04/15 04:27:42;;;;;;;6.43;4.55;;;6.20;99.90;;;;;;5012847;28;20911;-89
2022/04/15 04:30:14;;;;;;;6.13;4.32;;;6.20;99.90;;;;;;5011834;28;20390;-88
2022/04/15 04:32:49;;;;;;;5.35;3.90;;;6.20;99.90;;;;;;5014904;28;20981;-87
2022/04/15 04:35:21;;;;;;;6.13;3.53;;;6.20;99.90;;;;;;5020935;28;20401;-87
2022/04/15 04:37:49;;;;;;;6.88;4.50;;;6.30;99.90;;;;;;5045016;28;20405;-87
2022/04/15 04:40:17;;;;;;;5.97;4.30;;;6.20;99.90;;;;;;5011168;28;20385;-87
2022/04/15 04:42:48;;;;;;;5.80;4.20;;;6.20;99.90;;;;;;5049496;28;20396;-87
2022/04/15 04:45:17;;;;;;;5.93;3.78;;;6.20;99.90;;;;;;5034603;28;20405;-88
2022/04/15 04:47:46;;;;;;;6.57;4.65;;;6.10;99.90;;;;;;5009999;28;20525;-87
2022/04/15 04:50:14;;;;;;;8.45;5.57;;;6.20;99.90;;;;;;5018440;28;20439;-86
2022/04/15 04:52:42;;;;;;;9.05;5.78;;;6.10;99.90;;;;;;5001176;28;20964;-86
2022/04/15 04:55:10;;;;;;;8.35;6.30;;;6.20;99.90;;;;;;4978872;28;20420;-88
2022/04/15 04:57:38;;;;;;;7.97;6.33;;;6.20;99.90;;;;;;5011081;28;20407;-87
2022/04/15 05:00:08;;;;;;;8.60;6.10;;;6.10;99.90;;;;;;5015332;28;20435;-88
2022/04/15 05:02:36;;;;;;;10.35;6.82;;;6.20;99.90;;;;;;5015036;28;20852;-87
2022/04/15 05:05:05;;;;;;;8.77;5.87;;;6.10;99.90;;;;;;5007934;28;20474;-88
2022/04/15 05:07:33;;;;;;;8.50;5.65;;;6.20;99.90;;;;;;5015623;28;20478;-87
2022/04/15 05:10:07;;;;;;;8.85;5.95;;;6.20;99.90;;;;;;5005116;28;20411;-88
2022/04/15 05:12:35;;;;;;;10.57;7.00;;;6.20;99.90;;;;;;5010328;28;20436;-87
2022/04/15 05:15:03;;;;;;;8.88;6.30;;;6.20;99.90;;;;;;5013612;28;20499;-88
2022/04/15 05:17:31;;;;;;;8.97;6.40;;;6.30;99.90;;;;;;5011989;28;20416;-87
2022/04/15 05:19:59;;;;;;;8.80;6.10;;;6.20;99.90;;;;;;5015205;28;20470;-87
2022/04/15 05:22:26;;;;;;;9.18;6.22;;;6.20;99.90;;;;;;5009626;28;20412;-88
2022/04/15 05:24:54;;;;;;;8.45;5.97;;;6.20;99.90;;;;;;4993950;28;20416;-88
2022/04/15 05:27:22;;;;;;;8.53;5.53;;;6.20;99.90;;;;;;4995682;28;20502;-89
2022/04/15 05:29:50;;;;;;;7.32;5.25;;;6.20;99.90;;;;;;5011213;28;20470;-88
2022/04/15 05:32:18;;;;;;;7.13;5.57;;;6.20;99.90;;;;;;4991622;28;20422;-88
2022/04/15 05:34:46;;;;;;;6.50;5.47;;;6.30;99.90;;;;;;5010054;28;20846;-88
2022/04/15 05:37:14;;;;;;;7.80;5.10;;;6.30;99.90;;;;;;5011434;28;20459;-87
2022/04/15 05:39:41;;;;;;;6.00;4.25;;;6.20;99.90;;;;;;5022752;28;20414;-88
2022/04/15 05:42:09;;;;;;;7.00;5.03;;;6.30;99.90;;;;;;5029757;28;20435;-87
2022/04/15 05:44:37;;;;;;;6.30;4.50;;;6.30;99.90;;;;;;5015537;28;20401;-87
2022/04/15 05:47:05;;;;;;;5.83;4.37;;;6.30;99.90;;;;;;4998830;28;20419;-89
2022/04/15 05:49:34;;;;;;;5.73;4.33;;;6.30;99.90;;;;;;5002600;28;20420;-88
2022/04/15 05:52:03;;;;;;;5.70;4.30;;;6.30;99.90;;;;;;5016154;28;20431;-86
2022/04/15 05:54:30;;;;;;;6.13;4.28;;;6.20;99.90;;;;;;5025050;28;20415;-86
2022/04/15 05:56:58;;;;;;;6.63;4.57;;;6.20;99.90;;;;;;4994479;28;20405;-86
2022/04/15 05:59:26;;;;;;;6.65;4.47;;;6.20;99.90;;;;;;5016148;28;20410;-87
2022/04/15 06:01:54;;;;;;;5.50;4.47;;;6.30;99.90;;;;;;5006437;28;20408;-91
2022/04/15 06:04:21;;;;;;;8.48;5.82;;;6.30;99.90;;;;;;5007222;28;20394;-90
2022/04/15 06:06:49;;;;;;;6.93;4.88;;;6.30;99.90;;;;;;5011140;28;20412;-88
2022/04/15 06:09:17;;;;;;;7.10;5.30;;;6.20;99.90;;;;;;5018531;28;20431;-88
2022/04/15 06:11:44;;;;;;;6.85;5.10;;;6.30;99.90;;;;;;5017639;28;20411;-90
2022/04/15 06:14:12;;;;;;;7.05;5.35;;;6.30;99.90;;;;;;5033180;28;20410;-90
2022/04/15 06:16:42;;;;;;;6.30;4.90;;;6.30;99.90;;;;;;5017719;28;20419;-90
2022/04/15 06:19:10;;;;;;;7.03;5.25;;;6.30;99.90;;;;;;5010756;28;20514;-90
2022/04/15 06:21:57;;;;;;;7.43;5.03;;;6.30;99.90;;;;;;5009792;28;20451;-88
2022/04/15 06:24:25;;;;;;;7.45;5.50;;;6.30;99.90;;;;;;4998441;28;20555;-89
2022/04/15 06:26:53;;;;;;;8.43;5.68;;;6.40;99.90;;;;;;5016489;28;20401;-89
2022/04/15 06:29:20;;;;;;;7.35;5.50;;;6.40;99.90;;;;;;4998376;28;20832;-90
2022/04/15 06:31:48;;;;;;;8.18;5.80;;;6.40;99.90;;;;;;5020380;28;20397;-90
2022/04/15 06:34:16;;;;;;;8.38;5.90;;;6.50;99.90;;;;;;5015745;28;20917;-89
2022/04/15 06:36:43;;;;;;;10.02;6.75;;;6.50;99.90;;;;;;5011099;28;20417;-88
2022/04/15 06:39:11;;;;;;;10.38;7.30;;;6.50;99.90;;;;;;5052156;27;20398;-87
2022/04/15 06:41:40;;;;;;;12.07;8.20;;;6.40;99.90;;;;;;5035468;28;20439;-88
2022/04/15 06:44:08;;;;;;;11.35;7.88;;;6.50;99.90;;;;;;5012948;28;20409;-87
2022/04/15 06:46:36;;;;;;;12.00;7.65;;;6.50;99.90;;;;;;5033635;28;20408;-87
2022/04/15 06:49:04;;;;;;;12.10;7.68;;;6.50;99.90;;;;;;5009637;28;20484;-88
2022/04/15 06:51:32;;;;;;;10.27;7.25;;;6.50;99.90;;;;;;5025027;28;20400;-88
2022/04/15 06:54:00;;;;;;;12.57;7.53;;;6.50;99.90;;;;;;5017304;28;20493;-87
2022/04/15 06:56:27;;;;;;;9.45;7.28;;;6.50;99.90;;;;;;5022155;28;20391;-88
2022/04/15 06:58:55;;;;;;;10.27;6.80;;;6.50;99.90;;;;;;4998057;28;20411;-87
2022/04/15 07:01:24;;;;;;;10.55;6.60;;;6.50;99.90;;;;;;5021796;28;20768;-87
2022/04/15 07:03:52;;;;;;;14.43;7.57;;;6.50;99.90;;;;;;5014980;28;20406;-88
2022/04/15 07:06:19;;;;;;;10.85;7.20;;;6.60;99.90;;;;;;5017837;28;20441;-87
2022/04/15 07:08:47;;;;;;;11.30;6.70;;;6.60;99.90;;;;;;5012015;28;20770;-87
2022/04/15 07:11:15;;;;;;;9.52;6.20;;;6.60;99.90;;;;;;5016444;27;20504;-88
2022/04/15 07:13:44;;;;;;;9.25;6.53;;;6.50;99.90;;;;;;5008919;28;20405;-88
2022/04/15 07:16:13;;;;;;;10.20;6.68;;;6.50;99.90;;;;;;5031284;28;20807;-88
2022/04/15 07:18:40;;;;;;;9.57;6.13;;;6.60;99.90;;;;;;5036035;28;20934;-88
2022/04/15 07:21:08;;;;;;;9.73;6.45;;;6.60;99.90;;;;;;5016873;28;20495;-89
2022/04/15 07:23:35;;;;;;;11.95;5.68;;;6.60;99.90;;;;;;5003916;28;20492;-89
2022/04/15 07:26:04;;;;;;;11.52;5.95;;;6.50;99.90;;;;;;5022436;28;20403;-88
2022/04/15 07:28:31;;;;;;;10.43;6.13;;;6.50;99.90;;;;;;5015576;28;20484;-88
2022/04/15 07:30:59;;;;;;;8.88;5.60;;;6.50;99.90;;;;;;5003554;28;20413;-88
2022/04/15 07:33:27;;;;;;;10.65;5.68;;;6.50;99.90;;;;;;5013909;28;20403;-89
2022/04/15 07:35:55;;;;;;;10.50;5.47;;;6.50;99.90;;;;;;5014848;28;20639;-88
2022/04/15 07:38:23;;;;;;;10.10;5.43;;;6.50;99.90;;;;;;5031068;28;20755;-89
2022/04/15 07:40:50;;;;;;;9.85;5.70;;;6.50;99.90;;;;;;5021417;28;20401;-88
2022/04/15 07:43:18;;;;;;;8.10;6.20;;;6.50;99.90;;;;;;4981876;28;20408;-88
2022/04/15 07:45:45;;;;;;;11.63;6.32;;;6.50;99.90;;;;;;5023619;28;20399;-87
2022/04/15 07:48:13;;;;;;;9.47;6.20;;;6.50;99.90;;;;;;5036337;28;20417;-88
2022/04/15 07:50:42;;;;;;;11.07;6.45;;;6.60;99.90;;;;;;5000841;28;20899;-88
2022/04/15 07:53:09;;;;;;;11.25;6.72;;;6.60;99.90;;;;;;5012862;28;20389;-87
2022/04/15 07:55:37;;;;;;;11.70;6.88;;;6.60;99.90;;;;;;5015135;28;20413;-87
2022/04/15 07:58:05;;;;;;;11.05;6.93;;;6.60;99.90;;;;;;5041501;28;20669;-87
2022/04/15 08:00:34;;;;;;;10.30;6.20;;;6.60;99.90;;;;;;5022660;28;20405;-87
2022/04/15 08:03:02;;;;;;;11.73;6.90;;;6.60;99.90;;;;;;5019452;28;20443;-88
2022/04/15 08:05:29;;;;;;;11.50;6.45;;;6.60;99.90;;;;;;5006427;28;20422;-86
2022/04/15 08:07:57;;;;;;;10.70;5.53;;;6.50;99.90;;;;;;5020241;28;20392;-86
2022/04/15 08:10:25;;;;;;;8.98;5.35;;;6.50;99.90;;;;;;5018159;28;20501;-87
2022/04/15 08:12:53;;;;;;;10.97;5.43;;;6.50;99.90;;;;;;5009738;28;20833;-87
2022/04/15 08:15:21;;;;;;;8.50;5.20;;;6.40;99.90;;;;;;5013417;28;20479;-87
2022/04/15 08:17:48;;;;;;;7.50;4.65;;;6.40;99.90;;;;;;5038715;28;20414;-87
2022/04/15 08:20:16;;;;;;;7.50;4.22;;;6.40;99.90;;;;;;5045169;28;20729;-87
2022/04/15 08:22:44;;;;;;;8.23;4.63;;;6.40;99.90;;;;;;5018176;28;20393;-87
2022/04/15 08:25:12;;;;;;;6.30;3.53;;;6.40;99.90;;;;;;5017384;28;20405;-86
2022/04/15 08:27:40;;;;;;;8.43;5.32;;;6.40;99.90;;;;;;5028163;28;20916;-87
2022/04/15 08:30:08;;;;;;;7.70;3.72;;;6.40;99.90;;;;;;4999264;28;20501;-86
2022/04/15 08:32:36;;;;;;;7.75;3.47;;;6.20;99.90;;;;;;5027857;28;20492;-86
2022/04/15 08:35:11;;;;;;;6.90;3.58;;;6.30;99.90;;;;;;5016014;28;20403;-87
2022/04/15 08:37:40;;;;;;;7.60;3.78;;;6.20;99.90;;;;;;5005639;28;20423;-87
2022/04/15 08:40:11;;;;;;;5.88;3.20;;;6.20;99.90;;;;;;5027619;28;20414;-87
2022/04/15 08:42:43;;;;;;;4.88;3.13;;;6.20;99.90;;;;;;5011815;28;20409;-87
2022/04/15 08:45:13;;;;;;;8.37;4.00;;;6.30;99.90;;;;;;4998609;28;20533;-87
2022/04/15 08:47:41;;;;;;;4.38;2.65;;;6.20;99.90;;;;;;5011102;28;20985;-86
2022/04/15 08:50:10;;;;;;;4.77;2.60;;;6.10;99.90;;;;;;5011240;28;20823;-87
2022/04/15 08:52:38;;;;;;;5.80;3.58;;;6.10;99.90;;;;;;4999038;28;20444;-88
2022/04/15 08:55:07;;;;;;;14.55;9.05;;;6.00;99.90;;;;;;5003955;28;20413;-90
2022/04/15 08:57:34;;;;;;;5.15;2.38;;;6.00;99.90;;;;;;5014546;28;20529;-86
2022/04/15 09:00:05;;;;;;;5.10;2.90;;;6.00;99.90;;;;;;5007112;28;20414;-93
2022/04/15 09:02:35;;;;;;;3.65;2.00;;;5.90;99.90;;;;;;5007388;28;20413;-92
2022/04/15 09:05:10;;;;;;;3.40;2.27;;;5.80;99.90;;;;;;5028146;28;20401;-92
2022/04/15 09:07:38;;;;;;;3.42;1.88;;;5.80;99.90;;;;;;4999385;28;20432;-93
2022/04/15 09:10:08;;;;;;;4.85;2.05;;;5.80;99.90;;;;;;4996944;28;20921;-95
2022/04/15 09:12:36;;;;;;;5.65;2.55;;;5.70;99.90;;;;;;5002737;28;20451;-94
2022/04/15 09:15:06;;;;;;;3.85;2.15;;;5.70;99.90;;;;;;4995967;28;20419;-95
2022/04/15 09:17:52;;;;;;;5.32;2.50;;;5.70;99.90;;;;;;5015804;28;20427;-93
2022/04/15 09:20:21;;;;;;;4.47;2.10;;;5.70;99.90;;;;;;5030073;28;20816;-94
2022/04/15 09:22:55;;;;;;;5.65;2.60;;;5.70;99.90;;;;;;5025521;28;20996;-94
2022/04/15 09:25:27;;;;;;;7.35;3.33;;;5.80;99.90;;;;;;5043209;28;20389;-94
2022/04/15 09:27:56;;;;;;;5.75;2.45;;;5.80;99.90;;;;;;4995777;28;20417;-93
2022/04/15 09:30:41;;;;;;;6.32;3.67;;;5.80;99.90;;;;;;4996793;28;20412;-91
2022/04/15 09:33:10;;;;;;;5.55;2.83;;;5.70;99.90;;;;;;5000956;28;20410;-91
2022/04/15 09:35:45;;;;;;;7.03;4.03;;;5.70;99.90;;;;;;5001595;28;20435;-91
2022/04/15 09:38:13;;;;;;;4.68;2.05;;;5.70;99.90;;;;;;5014357;28;20413;-90
2022/04/15 09:40:40;;;;;;;5.70;2.95;;;5.70;99.90;;;;;;5020267;28;20429;-92
2022/04/15 09:43:09;;;;;;;7.82;3.72;;;5.80;99.90;;;;;;5041312;28;20416;-92
2022/04/15 09:45:37;;;;;;;8.57;4.60;;;5.80;99.90;;;;;;5037340;28;20775;-92
2022/04/15 09:48:08;;;;;;;10.45;5.53;;;5.80;99.90;;;;;;5001386;28;20419;-92
2022/04/15 09:50:44;;;;;;;17.10;9.50;;;5.80;99.90;;;;;;5034955;28;20516;-93
2022/04/15 09:53:20;;;;;;;4.97;2.47;;;5.80;99.90;;;;;;4995869;28;20500;-90
2022/04/15 09:55:50;;;;;;;5.25;2.10;;;5.90;99.90;;;;;;5018601;28;20460;-91
2022/04/15 09:58:31;;;;;;;4.45;2.30;;;5.90;99.90;;;;;;5034379;28;20407;-90
2022/04/15 10:01:02;;;;;;;3.90;2.17;;;5.90;99.90;;;;;;5032693;28;20915;-91
2022/04/15 10:03:35;;;;;;;4.78;2.25;;;6.00;99.90;;;;;;5026116;28;20463;-90
2022/04/15 10:06:07;;;;;;;4.63;1.85;;;6.00;99.90;;;;;;4998888;28;20445;-90
2022/04/15 10:08:56;;;;;;;4.75;2.35;;;6.00;99.90;;;;;;5018148;28;20411;-91
2022/04/15 10:11:24;;;;;;;3.90;2.08;;;6.00;99.90;;;;;;5030815;28;20820;-90
2022/04/15 10:13:55;;;;;;;4.68;2.10;;;6.10;99.90;;;;;;5015734;28;20413;-91
2022/04/15 10:16:23;;;;;;;5.07;2.83;;;6.10;99.90;;;;;;5017515;28;20401;-91
2022/04/15 10:18:52;;;;;;;3.78;2.20;;;6.00;99.90;;;;;;5005906;28;20405;-91
2022/04/15 10:21:20;;;;;;;14.02;6.15;;;6.00;99.90;;;;;;5043510;28;20433;-91
2022/04/15 10:23:47;;;;;;;13.53;6.37;;;6.10;99.90;;;;;;5019486;28;20479;-90
2022/04/15 10:26:18;;;;;;;12.43;6.45;;;6.10;99.90;;;;;;5019230;28;20822;-91
2022/04/15 10:28:49;;;;;;;12.83;5.40;;;6.20;99.90;;;;;;5029423;28;20408;-90
2022/04/15 10:31:17;;;;;;;5.38;2.88;;;6.20;99.90;;;;;;5029165;28;20447;-92
2022/04/15 10:33:49;;;;;;;8.52;4.13;;;6.10;99.90;;;;;;5025048;28;20771;-92
2022/04/15 10:36:22;;;;;;;7.32;3.50;;;6.10;99.90;;;;;;5035964;28;20406;-87
2022/04/15 10:39:08;;;;;;;6.05;2.70;;;6.20;99.90;;;;;;5018236;28;20489;-93
2022/04/15 10:41:42;;;;;;;4.38;1.60;;;6.20;99.90;;;;;;5036933;28;20912;-94
2022/04/15 10:44:14;;;;;;;4.03;1.80;;;6.10;99.90;;;;;;5014630;28;20431;-92
2022/04/15 10:46:42;;;;;;;6.85;3.35;;;6.10;99.90;;;;;;5037439;28;20456;-95
2022/04/15 10:49:21;;;;;;;7.90;3.47;;;6.10;99.90;;;;;;4989248;28;20408;-94
2022/04/15 10:52:04;;;;;;;12.32;5.75;;;6.10;99.90;;;;;;5016391;28;20407;-93
2022/04/15 10:54:32;;;;;;;45.17;25.05;;;6.10;99.90;;;;;;5030153;28;20414;-90
2022/04/15 10:57:08;;;;;;;7.68;3.75;;;6.10;99.90;;;;;;4999665;28;20411;-93
2022/04/15 11:02:45;;;;;;;5.20;2.75;;;6.10;99.90;;;;;;5017922;28;20416;-93
2022/04/15 11:05:32;;;;;;;3.33;1.30;;;6.10;99.90;;;;;;5019072;28;20403;-93
2022/04/15 11:08:11;;;;;;;4.78;2.17;;;6.10;99.90;;;;;;5016659;28;20817;-93
2022/04/15 11:10:42;;;;;;;6.75;2.63;;;6.00;99.90;;;;;;5016304;28;20409;-83
2022/04/15 11:13:23;;;;;;;11.50;5.13;;;5.90;99.90;;;;;;5007751;28;20450;-82
2022/04/15 11:15:58;;;;;;;6.10;2.55;;;5.90;99.90;;;;;;5010744;28;20437;-82
2022/04/15 11:18:53;;;;;;;10.32;5.13;;;5.90;99.90;;;;;;5014010;28;20504;-90
2022/04/15 11:21:32;;;;;;;5.10;2.17;;;5.90;99.90;;;;;;5029451;28;20403;-90
2022/04/15 11:24:07;;;;;;;4.88;2.45;;;5.80;99.90;;;;;;5039152;28;20489;-91
2022/04/15 11:26:39;;;;;;;4.95;2.40;;;5.90;99.90;;;;;;5018822;28;20411;-93
2022/04/15 11:29:11;;;;;;;3.28;1.60;;;5.80;99.90;;;;;;5022298;28;20456;-93
2022/04/15 11:31:46;;;;;;;4.00;1.80;;;5.70;99.90;;;;;;5029426;28;20420;-92
2022/04/15 11:34:16;;;;;;;4.00;1.98;;;5.70;99.90;;;;;;5035356;28;20414;-92
2022/04/15 11:36:46;;;;;;;5.40;2.73;;;5.70;99.90;;;;;;5020275;28;20413;-92
2022/04/15 11:39:18;;;;;;;4.23;2.33;;;5.60;99.90;;;;;;4998745;28;20408;-91
2022/04/15 11:41:52;;;;;;;12.82;5.38;;;5.70;99.90;;;;;;5036476;28;20451;-93
2022/04/15 11:44:22;;;;;;;11.98;5.53;;;5.70;99.90;;;;;;5035221;28;20401;-93
2022/04/15 11:47:15;;;;;;;19.42;8.93;;;5.70;99.90;;;;;;5002734;28;20400;-93
2022/04/15 11:49:46;;;;;;;8.82;4.88;;;5.60;99.90;;;;;;5024777;28;20398;-91
2022/04/15 11:52:26;;;;;;;10.35;5.60;;;5.50;99.90;;;;;;5039267;28;20435;-93
2022/04/15 11:54:55;;;;;;;14.48;6.78;;;5.40;99.90;;;;;;5015746;28;20410;-91
2022/04/15 11:57:22;;;;;;;9.77;4.65;;;5.40;99.90;;;;;;5011554;28;20443;-92
2022/04/15 11:59:50;;;;;;;3.60;2.30;;;5.30;99.90;;;;;;5016441;28;20418;-92
2022/04/15 12:02:23;;;;;;;5.80;3.45;;;5.30;99.90;;;;;;5015525;28;20472;-92
2022/04/15 12:04:54;;;;;;;4.45;2.80;;;5.20;99.90;;;;;;5032162;28;20490;-91
2022/04/15 12:07:25;;;;;;;4.20;2.20;;;5.30;99.90;;;;;;5009819;28;20406;-91
2022/04/15 12:09:55;;;;;;;4.22;2.92;;;5.30;99.90;;;;;;5003105;28;20414;-92
2022/04/15 12:12:27;;;;;;;3.63;2.40;;;5.30;99.90;;;;;;4995491;28;20417;-91
2022/04/15 12:14:56;;;;;;;4.28;2.30;;;5.20;99.90;;;;;;5012811;28;20393;-92
2022/04/15 12:17:25;;;;;;;4.15;2.50;;;5.20;99.90;;;;;;5017292;28;20404;-90
2022/04/15 12:19:54;;;;;;;2.92;1.83;;;5.20;99.90;;;;;;5042555;28;20409;-92
2022/04/15 12:22:24;;;;;;;2.55;1.73;;;5.30;99.90;;;;;;5031843;28;20404;-93
2022/04/15 12:25:12;;;;;;;7.03;4.05;;;5.10;99.90;;;;;;5025666;28;20409;-93
2022/04/15 12:27:44;;;;;;;4.82;2.80;;;5.20;99.90;;;;;;5025326;28;20407;-89
2022/04/15 12:30:14;;;;;;;8.70;5.85;;;5.20;99.90;;;;;;4994813;28;20962;-94
2022/04/15 12:32:46;;;;;;;7.10;4.18;;;5.20;99.90;;;;;;5036174;28;20419;-94
2022/04/15 12:35:14;;;;;;;9.23;6.67;;;5.10;99.90;;;;;;5012934;28;20747;-93
2022/04/15 12:37:44;;;;;;;5.68;4.13;;;5.10;99.90;;;;;;5024099;28;20437;-92
2022/04/15 12:40:15;;;;;;;2.42;1.90;;;5.10;99.90;;;;;;5027514;28;20506;-93
2022/04/15 12:42:44;;;;;;;3.85;3.45;;;5.10;99.90;;;;;;5016018;28;20432;-93
2022/04/15 12:45:17;;;;;;;4.78;3.33;;;5.10;99.90;;;;;;5015427;28;20450;-94
2022/04/15 12:48:07;;;;;;;2.00;1.65;;;5.10;99.90;;;;;;5025418;28;20413;-95
2022/04/15 12:50:38;;;;;;;1.75;1.50;;;5.10;99.90;;;;;;4999715;28;20466;-93
2022/04/15 12:53:16;;;;;;;2.55;1.98;;;5.10;99.90;;;;;;4994171;28;20397;-92
2022/04/15 12:55:44;;;;;;;3.15;2.25;;;5.10;99.90;;;;;;5009782;28;20405;-83
2022/04/15 12:58:27;;;;;;;4.25;2.63;;;5.00;99.90;;;;;;5003294;28;20408;-89
2022/04/15 13:00:58;;;;;;;5.63;3.83;;;4.90;99.90;;;;;;5021300;28;20920;-90
2022/04/15 13:03:30;;;;;;;4.43;3.22;;;4.90;99.90;;;;;;5044316;28;20407;-91
2022/04/15 13:05:58;;;;;;;9.23;7.57;;;4.90;99.90;;;;;;4996965;28;20484;-90
2022/04/15 13:08:26;;;;;;;5.47;4.17;;;4.90;99.90;;;;;;5003079;28;20400;-90
2022/04/15 13:10:55;;;;;;;4.07;2.88;;;4.90;99.90;;;;;;4979552;28;20535;-90
2022/04/15 13:13:37;;;;;;;3.22;2.60;;;4.90;99.90;;;;;;5020933;28;20442;-90